createdAt,value
2018-05-01T00:00:42.287Z,55.70
2018-05-01T00:01:44.839Z,55.80
2018-05-01T00:02:47.349Z,55.90
2018-05-01T00:03:50.623Z,56.10
2018-05-01T00:04:53.104Z,56.10
2018-05-01T00:05:56.676Z,56.10
2018-05-01T00:06:59.932Z,56.00
2018-05-01T00:08:02.415Z,56.00
2018-05-01T00:09:05.791Z,56.20
2018-05-01T00:10:08.488Z,56.40
2018-05-01T00:11:11.938Z,56.70
2018-05-01T00:12:14.431Z,56.70
2018-05-01T00:13:16.899Z,57.30
2018-05-01T00:14:19.480Z,56.90
2018-05-01T00:15:22.489Z,57.00
2018-05-01T00:16:25.259Z,57.00
2018-05-01T00:17:27.764Z,57.10
2018-05-01T00:18:30.229Z,57.20
2018-05-01T00:19:32.700Z,57.30
2018-05-01T00:20:35.571Z,57.30
2018-05-01T00:21:38.060Z,57.20
2018-05-01T00:22:40.658Z,57.80
2018-05-01T00:23:43.171Z,57.40
2018-05-01T00:24:45.640Z,57.60
2018-05-01T00:25:48.460Z,57.90
2018-05-01T00:26:50.964Z,58.60
2018-05-01T00:27:53.471Z,58.30
2018-05-01T00:28:56.700Z,58.60
2018-05-01T00:29:59.160Z,58.50
2018-05-01T00:31:01.907Z,58.40
2018-05-01T00:32:04.406Z,58.40
2018-05-01T00:33:06.874Z,58.60
2018-05-01T00:34:09.331Z,58.60
2018-05-01T00:35:12.741Z,58.60
2018-05-01T00:36:16.585Z,58.70
2018-05-01T00:37:19.083Z,59.60
2018-05-01T00:38:21.544Z,59.20
2018-05-01T00:39:24.012Z,59.10
2018-05-01T00:40:26.850Z,59.10
2018-05-01T00:41:29.392Z,59.30
2018-05-01T00:42:32.621Z,59.10
2018-05-01T00:43:35.083Z,59.00
2018-05-01T00:44:37.552Z,59.10
2018-05-01T00:45:41.233Z,59.30
2018-05-01T00:46:43.754Z,59.20
2018-05-01T00:47:47.054Z,60.10
2018-05-01T00:48:50.480Z,59.60
2018-05-01T00:49:52.944Z,59.60
2018-05-01T00:50:55.691Z,59.80
2018-05-01T00:51:58.344Z,59.80
2018-05-01T00:53:01.575Z,59.70
2018-05-01T00:54:04.104Z,59.70
2018-05-01T00:55:06.981Z,59.70
2018-05-01T00:56:09.800Z,59.50
2018-05-01T00:57:12.309Z,59.60
2018-05-01T00:58:15.538Z,59.90
2018-05-01T00:59:18.012Z,59.90
2018-05-01T01:00:20.755Z,60.00
2018-05-01T01:01:23.551Z,59.60
2018-05-01T01:02:26.835Z,59.90
2018-05-01T01:03:29.299Z,59.90
2018-05-01T01:04:31.768Z,60.10
2018-05-01T01:05:34.698Z,60.30
2018-05-01T01:06:37.201Z,60.50
2018-05-01T01:07:39.684Z,60.70
2018-05-01T01:08:42.147Z,60.80
2018-05-01T01:09:44.627Z,60.70
2018-05-01T01:10:48.082Z,60.60
2018-05-01T01:11:50.574Z,60.60
2018-05-01T01:12:53.871Z,60.30
2018-05-01T01:13:57.104Z,60.10
2018-05-01T01:14:59.572Z,60.10
2018-05-01T01:16:02.205Z,60.10
2018-05-01T01:17:04.692Z,59.80
2018-05-01T01:18:07.172Z,59.80
2018-05-01T01:19:09.632Z,60.00
2018-05-01T01:20:12.476Z,60.00
2018-05-01T01:21:16.166Z,60.40
2018-05-01T01:22:18.750Z,60.20
2018-05-01T01:23:21.189Z,60.60
2018-05-01T01:24:23.657Z,60.50
2018-05-01T01:25:26.379Z,60.50
2018-05-01T01:26:28.902Z,60.40
2018-05-01T01:27:31.368Z,60.40
2018-05-01T01:28:33.852Z,60.40
2018-05-01T01:29:36.324Z,60.50
2018-05-01T01:30:39.267Z,60.30
2018-05-01T01:31:41.764Z,60.20
2018-05-01T01:32:44.455Z,60.20
2018-05-01T01:33:48.459Z,60.70
2018-05-01T01:34:51.073Z,61.30
2018-05-01T01:35:53.356Z,60.70
2018-05-01T01:36:55.363Z,60.70
2018-05-01T01:37:58.103Z,60.90
2018-05-01T01:39:00.102Z,60.90
2018-05-01T01:40:02.076Z,61.00
2018-05-01T01:41:04.212Z,61.10
2018-05-01T01:42:06.212Z,61.20
2018-05-01T01:43:08.197Z,61.40
2018-05-01T01:44:10.963Z,61.70
2018-05-01T01:45:13.889Z,61.90
2018-05-01T01:46:16.227Z,61.80
2018-05-01T01:47:18.239Z,62.00
2018-05-01T01:48:20.272Z,62.30
2018-05-01T01:49:22.268Z,62.30
2018-05-01T01:50:25.264Z,62.70
2018-05-01T01:51:27.473Z,62.70
2018-05-01T01:52:29.472Z,62.70
2018-05-01T01:53:31.496Z,62.70
2018-05-01T01:54:33.512Z,63.20
2018-05-01T01:55:35.640Z,63.30
2018-05-01T01:56:37.654Z,63.20
2018-05-01T01:57:39.639Z,63.10
2018-05-01T01:58:41.620Z,63.00
2018-05-01T01:59:43.612Z,63.10
2018-05-01T02:00:45.811Z,63.10
2018-05-01T02:01:47.820Z,63.20
2018-05-01T02:02:49.792Z,63.50
2018-05-01T02:03:52.539Z,64.60
2018-05-01T02:04:54.528Z,64.40
2018-05-01T02:05:56.698Z,64.40
2018-05-01T02:06:58.696Z,64.80
2018-05-01T02:08:00.670Z,65.10
2018-05-01T02:09:03.456Z,65.70
2018-05-01T02:10:06.452Z,66.30
2018-05-01T02:11:09.682Z,66.20
2018-05-01T02:12:11.673Z,66.50
2018-05-01T02:13:14.419Z,66.80
2018-05-01T02:14:16.420Z,66.80
2018-05-01T02:15:18.671Z,67.80
2018-05-01T02:16:20.828Z,67.40
2018-05-01T02:17:22.859Z,68.30
2018-05-01T02:18:25.600Z,68.60
2018-05-01T02:19:27.593Z,68.50
2018-05-01T02:20:30.684Z,68.10
2018-05-01T02:21:32.695Z,68.10
2018-05-01T02:22:34.668Z,67.70
2018-05-01T02:23:37.407Z,68.20
2018-05-01T02:24:39.385Z,68.10
2018-05-01T02:25:41.674Z,67.90
2018-05-01T02:26:43.684Z,68.20
2018-05-01T02:27:45.672Z,68.90
2018-05-01T02:28:47.648Z,69.60
2018-05-01T02:29:49.627Z,69.90
2018-05-01T02:30:51.892Z,70.00
2018-05-01T02:31:53.895Z,69.70
2018-05-01T02:32:55.876Z,70.10
2018-05-01T02:33:57.888Z,69.50
2018-05-01T02:35:00.631Z,69.50
2018-05-01T02:36:03.041Z,69.50
2018-05-01T02:37:05.044Z,69.40
2018-05-01T02:38:07.032Z,69.30
2018-05-01T02:39:09.789Z,69.10
2018-05-01T02:40:12.898Z,69.50
2018-05-01T02:41:15.759Z,69.10
2018-05-01T02:42:17.740Z,69.20
2018-05-01T02:43:19.717Z,68.90
2018-05-01T02:44:21.693Z,68.70
2018-05-01T02:45:24.605Z,68.90
2018-05-01T02:46:26.877Z,68.30
2018-05-01T02:47:28.876Z,68.40
2018-05-01T02:48:30.853Z,68.10
2018-05-01T02:49:33.702Z,68.30
2018-05-01T02:50:35.905Z,68.30
2018-05-01T02:51:37.992Z,68.70
2018-05-01T02:52:39.973Z,68.90
2018-05-01T02:53:41.953Z,68.80
2018-05-01T02:54:43.935Z,68.90
2018-05-01T02:55:46.280Z,69.10
2018-05-01T02:56:48.377Z,69.20
2018-05-01T02:57:51.140Z,69.50
2018-05-01T02:58:53.115Z,69.40
2018-05-01T02:59:55.126Z,69.70
2018-05-01T03:00:58.308Z,69.60
2018-05-01T03:02:00.343Z,69.60
2018-05-01T03:03:02.336Z,70.00
2018-05-01T03:04:04.353Z,70.50
2018-05-01T03:05:06.550Z,70.80
2018-05-01T03:06:08.770Z,71.20
2018-05-01T03:07:10.806Z,71.50
2018-05-01T03:08:12.792Z,71.90
2018-05-01T03:09:14.771Z,72.30
2018-05-01T03:10:16.938Z,72.50
2018-05-01T03:11:19.963Z,73.00
2018-05-01T03:12:22.055Z,73.00
2018-05-01T03:13:24.033Z,72.80
2018-05-01T03:14:26.860Z,72.70
2018-05-01T03:15:29.011Z,73.40
2018-05-01T03:16:31.026Z,73.50
2018-05-01T03:17:33.794Z,73.70
2018-05-01T03:18:35.768Z,73.70
2018-05-01T03:19:38.507Z,73.40
2018-05-01T03:20:40.649Z,73.40
2018-05-01T03:21:42.653Z,73.00
2018-05-01T03:22:44.652Z,72.90
2018-05-01T03:23:46.628Z,72.70
2018-05-01T03:24:48.608Z,73.00
2018-05-01T03:25:50.876Z,73.50
2018-05-01T03:26:52.917Z,73.50
2018-05-01T03:27:54.978Z,73.50
2018-05-01T03:28:56.959Z,73.70
2018-05-01T03:29:58.933Z,73.50
2018-05-01T03:31:01.261Z,73.50
2018-05-01T03:32:03.260Z,73.60
2018-05-01T03:33:05.951Z,74.10
2018-05-01T03:34:08.763Z,74.60
2018-05-01T03:35:11.062Z,74.50
2018-05-01T03:36:13.982Z,74.80
2018-05-01T03:37:16.000Z,74.00
2018-05-01T03:38:18.024Z,73.80
2018-05-01T03:39:20.094Z,74.10
2018-05-01T03:40:22.303Z,74.10
2018-05-01T03:41:24.456Z,74.30
2018-05-01T03:42:26.456Z,74.40
2018-05-01T03:43:28.455Z,74.80
2018-05-01T03:44:31.244Z,74.40
2018-05-01T03:45:33.381Z,74.50
2018-05-01T03:46:35.386Z,74.30
2018-05-01T03:47:37.359Z,74.00
2018-05-01T03:48:39.356Z,73.90
2018-05-01T03:49:41.339Z,74.00
2018-05-01T03:50:43.379Z,74.10
2018-05-01T03:51:45.356Z,74.10
2018-05-01T03:52:47.334Z,74.10
2018-05-01T03:53:49.327Z,73.70
2018-05-01T03:54:51.303Z,73.70
2018-05-01T03:55:53.704Z,73.20
2018-05-01T03:56:55.645Z,72.90
2018-05-01T03:57:57.680Z,73.00
2018-05-01T03:58:59.667Z,73.20
2018-05-01T04:00:02.523Z,73.30
2018-05-01T04:01:04.726Z,73.30
2018-05-01T04:02:06.732Z,72.80
2018-05-01T04:03:09.642Z,72.80
2018-05-01T04:04:11.644Z,73.50
2018-05-01T04:05:13.917Z,72.80
2018-05-01T04:06:16.086Z,72.90
2018-05-01T04:07:18.880Z,72.90
2018-05-01T04:08:21.617Z,72.60
2018-05-01T04:09:23.639Z,72.60
2018-05-01T04:10:25.792Z,72.50
2018-05-01T04:11:27.966Z,72.40
2018-05-01T04:12:29.959Z,72.50
2018-05-01T04:13:32.704Z,72.20
2018-05-01T04:14:34.701Z,72.20
2018-05-01T04:15:36.973Z,71.70
2018-05-01T04:16:38.985Z,71.40
2018-05-01T04:17:40.964Z,71.60
2018-05-01T04:18:43.708Z,71.50
2018-05-01T04:19:45.737Z,71.50
2018-05-01T04:20:47.962Z,71.40
2018-05-01T04:21:50.778Z,70.90
2018-05-01T04:22:52.751Z,70.90
2018-05-01T04:23:54.735Z,70.90
2018-05-01T04:24:57.083Z,71.00
2018-05-01T04:26:00.130Z,71.20
2018-05-01T04:27:02.928Z,71.20
2018-05-01T04:28:05.679Z,71.20
2018-05-01T04:29:07.652Z,71.20
2018-05-01T04:30:10.688Z,71.50
2018-05-01T04:31:12.953Z,71.50
2018-05-01T04:32:14.956Z,71.40
2018-05-01T04:33:16.956Z,71.00
2018-05-01T04:34:18.960Z,70.90
2018-05-01T04:35:22.051Z,70.70
2018-05-01T04:36:24.311Z,70.70
2018-05-01T04:37:26.323Z,70.80
2018-05-01T04:38:28.344Z,71.00
2018-05-01T04:39:30.332Z,70.70
2018-05-01T04:40:32.535Z,70.80
2018-05-01T04:41:34.535Z,70.90
2018-05-01T04:42:36.524Z,71.20
2018-05-01T04:43:38.500Z,71.40
2018-05-01T04:44:40.480Z,71.10
2018-05-01T04:45:42.804Z,71.10
2018-05-01T04:46:44.805Z,71.30
2018-05-01T04:47:46.783Z,71.00
2018-05-01T04:48:49.526Z,70.20
2018-05-01T04:49:51.503Z,70.20
2018-05-01T04:50:54.611Z,69.70
2018-05-01T04:51:56.623Z,70.00
2018-05-01T04:52:58.591Z,70.20
2018-05-01T04:54:01.336Z,70.60
2018-05-01T04:55:03.590Z,70.50
2018-05-01T04:56:05.824Z,70.50
2018-05-01T04:57:07.823Z,70.70
2018-05-01T04:58:09.800Z,70.60
2018-05-01T04:59:11.780Z,70.70
2018-05-01T05:00:13.925Z,70.80
2018-05-01T05:01:16.284Z,70.40
2018-05-01T05:02:18.272Z,70.00
2018-05-01T05:03:20.248Z,69.80
2018-05-01T05:04:22.224Z,69.80
2018-05-01T05:05:25.268Z,69.60
2018-05-01T05:06:28.384Z,69.60
2018-05-01T05:07:31.131Z,69.30
2018-05-01T05:08:33.109Z,69.30
2018-05-01T05:09:35.926Z,69.10
2018-05-01T05:10:38.919Z,69.60
2018-05-01T05:11:40.932Z,69.00
2018-05-01T05:12:42.916Z,68.90
2018-05-01T05:13:44.895Z,68.40
2018-05-01T05:14:46.868Z,68.00
2018-05-01T05:15:49.805Z,67.60
2018-05-01T05:16:51.805Z,67.60
2018-05-01T05:17:53.775Z,67.60
2018-05-01T05:18:55.751Z,67.70
2018-05-01T05:19:57.737Z,67.60
2018-05-01T05:20:59.976Z,67.30
2018-05-01T05:22:01.992Z,67.90
2018-05-01T05:23:03.963Z,67.80
2018-05-01T05:24:05.940Z,67.50
2018-05-01T05:25:08.097Z,67.30
2018-05-01T05:26:11.124Z,66.90
2018-05-01T05:27:13.164Z,66.80
2018-05-01T05:28:15.908Z,67.20
2018-05-01T05:29:17.879Z,67.10
2018-05-01T05:30:21.495Z,66.70
2018-05-01T05:31:23.649Z,66.80
2018-05-01T05:32:25.668Z,66.90
2018-05-01T05:33:27.643Z,67.10
2018-05-01T05:34:30.383Z,66.60
2018-05-01T05:35:33.257Z,66.60
2018-05-01T05:36:36.059Z,65.90
2018-05-01T05:37:38.820Z,65.80
2018-05-01T05:38:41.555Z,65.70
2018-05-01T05:39:43.532Z,65.50
2018-05-01T05:40:45.773Z,65.50
2018-05-01T05:41:47.781Z,65.40
2018-05-01T05:42:49.806Z,65.50
2018-05-01T05:43:52.548Z,65.20
2018-05-01T05:44:54.568Z,65.00
2018-05-01T05:45:56.821Z,64.10
2018-05-01T05:46:58.827Z,63.20
2018-05-01T05:48:00.825Z,63.70
2018-05-01T05:49:02.808Z,62.70
2018-05-01T05:50:05.039Z,62.50
2018-05-01T05:51:07.307Z,62.40
2018-05-01T05:52:09.332Z,62.00
2018-05-01T05:53:12.080Z,62.00
2018-05-01T05:54:14.052Z,62.00
2018-05-01T05:55:17.053Z,62.30
2018-05-01T05:56:19.356Z,62.20
2018-05-01T05:57:22.866Z,61.80
2018-05-01T05:58:24.864Z,61.80
2018-05-01T05:59:26.840Z,61.60
2018-05-01T06:00:29.105Z,61.20
2018-05-01T06:01:31.151Z,61.40
2018-05-01T06:02:33.170Z,61.70
2018-05-01T06:03:35.168Z,61.90
2018-05-01T06:04:37.140Z,61.70
2018-05-01T06:05:40.363Z,61.50
2018-05-01T06:06:42.372Z,61.20
2018-05-01T06:07:44.380Z,61.30
2018-05-01T06:08:46.376Z,61.30
2018-05-01T06:09:49.855Z,61.00
2018-05-01T06:10:52.067Z,61.00
2018-05-01T06:11:54.068Z,61.00
2018-05-01T06:12:56.047Z,61.10
2018-05-01T06:13:58.808Z,60.90
2018-05-01T06:15:00.788Z,60.80
2018-05-01T06:16:03.007Z,60.90
2018-05-01T06:17:04.992Z,60.80
2018-05-01T06:18:07.737Z,59.80
2018-05-01T06:19:09.747Z,59.80
2018-05-01T06:20:11.992Z,59.40
2018-05-01T06:21:14.150Z,59.80
2018-05-01T06:22:16.168Z,59.80
2018-05-01T06:23:18.259Z,59.70
2018-05-01T06:24:20.257Z,59.50
2018-05-01T06:25:22.575Z,59.50
2018-05-01T06:26:24.833Z,59.30
2018-05-01T06:27:26.840Z,59.30
2018-05-01T06:28:28.852Z,59.20
2018-05-01T06:29:30.856Z,59.00
2018-05-01T06:30:33.033Z,59.10
2018-05-01T06:31:35.046Z,59.20
2018-05-01T06:32:37.031Z,58.60
2018-05-01T06:33:39.776Z,58.60
2018-05-01T06:34:41.767Z,58.60
2018-05-01T06:35:44.803Z,58.50
2018-05-01T06:36:46.883Z,58.40
2018-05-01T06:37:48.788Z,58.30
2018-05-01T06:38:50.759Z,58.10
2018-05-01T06:39:52.759Z,57.80
2018-05-01T06:40:55.031Z,57.80
2018-05-01T06:41:57.059Z,57.80
2018-05-01T06:42:59.923Z,58.10
2018-05-01T06:44:01.981Z,58.10
2018-05-01T06:45:04.274Z,57.90
2018-05-01T06:46:06.584Z,57.70
2018-05-01T06:47:09.384Z,57.40
2018-05-01T06:48:12.115Z,57.00
2018-05-01T06:49:14.092Z,57.00
2018-05-01T06:50:16.391Z,56.70
2018-05-01T06:51:18.648Z,56.70
2018-05-01T06:52:20.659Z,56.80
2018-05-01T06:53:22.635Z,57.60
2018-05-01T06:54:25.511Z,57.20
2018-05-01T06:55:28.402Z,57.10
2018-05-01T06:56:30.736Z,57.10
2018-05-01T06:57:33.496Z,56.80
2018-05-01T06:58:35.472Z,56.70
2018-05-01T06:59:38.225Z,56.70
2018-05-01T07:00:40.460Z,56.70
2018-05-01T07:01:42.456Z,56.80
2018-05-01T07:02:45.192Z,56.90
2018-05-01T07:03:47.176Z,56.80
2018-05-01T07:04:49.919Z,57.10
2018-05-01T07:05:52.226Z,57.00
2018-05-01T07:06:54.244Z,57.10
2018-05-01T07:07:56.248Z,57.00
2018-05-01T07:08:58.223Z,56.90
2018-05-01T07:10:00.209Z,56.30
2018-05-01T07:11:03.320Z,56.30
2018-05-01T07:12:05.326Z,56.30
2018-05-01T07:13:07.312Z,56.00
2018-05-01T07:14:09.292Z,56.10
2018-05-01T07:15:11.536Z,56.60
2018-05-01T07:16:13.795Z,56.40
2018-05-01T07:17:15.864Z,56.40
2018-05-01T07:18:17.844Z,56.50
2018-05-01T07:19:19.830Z,56.10
2018-05-01T07:20:22.902Z,55.60
2018-05-01T07:21:25.908Z,55.50
2018-05-01T07:22:27.907Z,55.50
2018-05-01T07:23:29.891Z,55.70
2018-05-01T07:24:32.640Z,55.30
2018-05-01T07:25:35.371Z,55.30
2018-05-01T07:26:37.421Z,54.90
2018-05-01T07:27:39.403Z,54.70
2018-05-01T07:28:41.400Z,54.90
2018-05-01T07:29:44.140Z,55.40
2018-05-01T07:30:46.401Z,55.30
2018-05-01T07:31:48.420Z,55.10
2018-05-01T07:32:50.444Z,54.90
2018-05-01T07:33:53.180Z,55.00
2018-05-01T07:34:55.184Z,55.00
2018-05-01T07:35:57.483Z,55.10
2018-05-01T07:36:59.496Z,55.00
2018-05-01T07:38:01.476Z,54.40
2018-05-01T07:39:03.456Z,54.20
2018-05-01T07:40:05.701Z,54.20
2018-05-01T07:41:08.043Z,54.30
2018-05-01T07:42:10.069Z,53.60
2018-05-01T07:43:12.040Z,53.30
2018-05-01T07:44:14.019Z,53.50
2018-05-01T07:45:16.249Z,54.10
2018-05-01T07:46:19.113Z,54.10
2018-05-01T07:47:21.191Z,54.30
2018-05-01T07:48:23.160Z,54.70
2018-05-01T07:49:25.146Z,54.80
2018-05-01T07:50:28.187Z,54.60
2018-05-01T07:51:30.200Z,54.60
2018-05-01T07:52:32.200Z,54.70
2018-05-01T07:53:34.209Z,54.70
2018-05-01T07:54:36.188Z,54.80
2018-05-01T07:55:38.423Z,55.00
2018-05-01T07:56:40.436Z,54.90
2018-05-01T07:57:42.843Z,54.90
2018-05-01T07:58:44.868Z,54.80
2018-05-01T07:59:47.622Z,55.00
2018-05-01T08:00:49.774Z,55.00
2018-05-01T08:01:52.556Z,55.40
2018-05-01T08:02:54.564Z,55.40
2018-05-01T08:03:56.559Z,55.30
2018-05-01T08:04:58.543Z,55.10
2018-05-01T08:06:00.818Z,54.70
2018-05-01T08:07:02.863Z,54.70
2018-05-01T08:08:04.881Z,54.60
2018-05-01T08:09:06.856Z,53.90
2018-05-01T08:10:09.904Z,54.20
2018-05-01T08:11:12.151Z,54.20
2018-05-01T08:12:14.143Z,54.40
2018-05-01T08:13:16.904Z,54.80
2018-05-01T08:14:19.771Z,55.30
2018-05-01T08:15:22.017Z,55.00
2018-05-01T08:16:24.636Z,55.50
2018-05-01T08:17:26.710Z,55.60
2018-05-01T08:18:28.757Z,54.80
2018-05-01T08:19:30.763Z,54.40
2018-05-01T08:20:34.494Z,53.20
2018-05-01T08:21:36.515Z,53.20
2018-05-01T08:22:38.499Z,52.50
2018-05-01T08:23:40.515Z,52.60
2018-05-01T08:24:42.515Z,52.80
2018-05-01T08:25:44.665Z,53.10
2018-05-01T08:26:46.716Z,53.40
2018-05-01T08:27:48.692Z,53.70
2018-05-01T08:28:50.759Z,53.90
2018-05-01T08:29:52.811Z,53.80
2018-05-01T08:30:55.086Z,53.50
2018-05-01T08:31:57.122Z,53.40
2018-05-01T08:33:00.033Z,53.40
2018-05-01T08:34:02.032Z,53.20
2018-05-01T08:35:05.451Z,52.80
2018-05-01T08:36:07.915Z,53.00
2018-05-01T08:37:09.916Z,52.80
2018-05-01T08:38:12.689Z,52.70
2018-05-01T08:39:14.684Z,52.70
2018-05-01T08:40:16.846Z,52.70
2018-05-01T08:41:19.273Z,52.60
2018-05-01T08:42:21.287Z,51.90
2018-05-01T08:43:23.275Z,51.90
2018-05-01T08:44:25.282Z,52.40
2018-05-01T08:45:27.591Z,52.00
2018-05-01T08:46:29.587Z,51.20
2018-05-01T08:47:31.573Z,51.00
2018-05-01T08:48:34.350Z,51.20
2018-05-01T08:49:37.118Z,50.80
2018-05-01T08:50:40.118Z,50.20
2018-05-01T08:51:42.148Z,50.20
2018-05-01T08:52:45.416Z,49.50
2018-05-01T08:53:47.402Z,49.50
2018-05-01T08:54:49.399Z,49.60
2018-05-01T08:55:51.622Z,49.90
2018-05-01T08:56:53.621Z,49.50
2018-05-01T08:57:55.605Z,49.30
2018-05-01T08:58:58.351Z,49.30
2018-05-01T09:00:00.354Z,49.30
2018-05-01T09:01:03.535Z,49.50
2018-05-01T09:02:05.539Z,49.40
2018-05-01T09:03:07.516Z,49.40
2018-05-01T09:04:10.441Z,49.80
2018-05-01T09:05:12.670Z,49.70
2018-05-01T09:06:14.855Z,49.80
2018-05-01T09:07:16.852Z,50.20
2018-05-01T09:08:18.843Z,49.80
2018-05-01T09:09:20.860Z,49.50
2018-05-01T09:10:23.846Z,49.20
2018-05-01T09:11:26.022Z,49.20
2018-05-01T09:12:28.027Z,49.20
2018-05-01T09:13:30.035Z,49.50
2018-05-01T09:14:31.996Z,49.20
2018-05-01T09:15:34.250Z,48.90
2018-05-01T09:16:36.258Z,49.20
2018-05-01T09:17:38.245Z,49.10
2018-05-01T09:18:40.228Z,49.30
2018-05-01T09:19:42.207Z,48.90
2018-05-01T09:20:45.640Z,49.20
2018-05-01T09:21:47.655Z,49.20
2018-05-01T09:22:49.640Z,49.10
2018-05-01T09:23:51.613Z,48.90
2018-05-01T09:24:53.588Z,48.90
2018-05-01T09:25:55.810Z,49.10
2018-05-01T09:26:57.815Z,49.20
2018-05-01T09:27:59.802Z,48.60
2018-05-01T09:29:01.831Z,47.80
2018-05-01T09:30:04.084Z,47.40
2018-05-01T09:31:06.348Z,47.50
2018-05-01T09:32:08.368Z,47.20
2018-05-01T09:33:10.338Z,47.00
2018-05-01T09:34:12.393Z,46.90
2018-05-01T09:35:14.717Z,47.00
2018-05-01T09:36:17.023Z,46.70
2018-05-01T09:37:19.790Z,46.00
2018-05-01T09:38:21.778Z,46.30
2018-05-01T09:39:24.519Z,46.30
2018-05-01T09:40:26.775Z,46.30
2018-05-01T09:41:29.057Z,46.00
2018-05-01T09:42:31.033Z,45.70
2018-05-01T09:43:33.013Z,45.90
2018-05-01T09:44:34.990Z,46.10
2018-05-01T09:45:37.253Z,46.00
2018-05-01T09:46:40.036Z,45.80
2018-05-01T09:47:42.094Z,45.70
2018-05-01T09:48:44.010Z,45.70
2018-05-01T09:49:45.986Z,45.90
2018-05-01T09:50:48.251Z,46.00
2018-05-01T09:51:51.027Z,46.00
2018-05-01T09:52:53.504Z,46.00
2018-05-01T09:53:56.727Z,45.40
2018-05-01T09:54:59.191Z,45.40
2018-05-01T09:56:01.836Z,44.60
2018-05-01T09:57:04.357Z,44.60
2018-05-01T09:58:06.826Z,44.90
2018-05-01T09:59:10.064Z,45.80
2018-05-01T10:00:12.785Z,45.30
2018-05-01T10:01:16.355Z,44.90
2018-05-01T10:02:18.892Z,44.80
2018-05-01T10:03:21.363Z,44.50
2018-05-01T10:04:23.839Z,44.80
2018-05-01T10:05:26.362Z,44.90
2018-05-01T10:06:28.944Z,45.00
2018-05-01T10:07:31.424Z,44.90
2018-05-01T10:08:33.889Z,45.00
2018-05-01T10:09:36.356Z,44.70
2018-05-01T10:10:40.471Z,44.40
2018-05-01T10:11:43.868Z,44.50
2018-05-01T10:12:46.349Z,44.10
2018-05-01T10:13:48.812Z,44.10
2018-05-01T10:14:51.284Z,44.00
2018-05-01T10:15:54.749Z,43.50
2018-05-01T10:16:57.229Z,43.50
2018-05-01T10:17:59.715Z,43.30
2018-05-01T10:19:02.948Z,43.60
2018-05-01T10:20:05.710Z,43.60
2018-05-01T10:21:08.461Z,43.90
2018-05-01T10:22:10.960Z,44.00
2018-05-01T10:23:13.450Z,43.70
2018-05-01T10:24:15.912Z,43.60
2018-05-01T10:25:20.174Z,43.10
2018-05-01T10:26:22.791Z,43.10
2018-05-01T10:27:25.252Z,42.60
2018-05-01T10:28:27.740Z,42.70
2018-05-01T10:29:30.977Z,42.90
2018-05-01T10:30:33.712Z,42.80
2018-05-01T10:31:36.205Z,43.00
2018-05-01T10:32:38.668Z,43.10
2018-05-01T10:33:41.147Z,43.10
2018-05-01T10:34:43.613Z,42.90
2018-05-01T10:35:46.488Z,43.00
2018-05-01T10:36:48.966Z,42.80
2018-05-01T10:37:51.436Z,42.70
2018-05-01T10:38:54.717Z,42.30
2018-05-01T10:39:57.180Z,42.80
2018-05-01T10:41:01.022Z,42.10
2018-05-01T10:42:03.526Z,42.10
2018-05-01T10:43:05.992Z,41.90
2018-05-01T10:44:08.564Z,41.90
2018-05-01T10:45:12.716Z,42.00
2018-05-01T10:46:16.306Z,41.80
2018-05-01T10:47:18.799Z,41.60
2018-05-01T10:48:21.272Z,41.60
2018-05-01T10:49:23.869Z,41.30
2018-05-01T10:50:27.393Z,39.00
2018-05-01T10:51:29.945Z,39.20
2018-05-01T10:52:32.389Z,39.20
2018-05-01T10:53:35.627Z,40.40
2018-05-01T10:54:38.207Z,40.40
2018-05-01T10:55:40.941Z,41.00
2018-05-01T10:56:43.460Z,41.70
2018-05-01T10:57:45.930Z,41.90
2018-05-01T10:58:48.401Z,42.20
2018-05-01T10:59:50.906Z,42.40
2018-05-01T11:00:53.672Z,42.60
2018-05-01T11:01:56.214Z,42.70
2018-05-01T11:02:58.741Z,42.90
2018-05-01T11:04:02.012Z,42.10
2018-05-01T11:05:05.485Z,42.10
2018-05-01T11:06:09.368Z,41.90
2018-05-01T11:07:12.038Z,41.90
2018-05-01T11:08:15.320Z,41.80
2018-05-01T11:09:17.807Z,41.80
2018-05-01T11:10:20.560Z,41.50
2018-05-01T11:11:23.771Z,40.80
2018-05-01T11:12:26.296Z,41.00
2018-05-01T11:13:29.532Z,41.60
2018-05-01T11:14:32.000Z,41.60
2018-05-01T11:15:34.777Z,42.00
2018-05-01T11:16:37.264Z,42.30
2018-05-01T11:17:40.496Z,41.70
2018-05-01T11:18:42.965Z,41.70
2018-05-01T11:19:45.432Z,41.60
2018-05-01T11:20:48.172Z,41.70
2018-05-01T11:21:50.659Z,41.90
2018-05-01T11:22:53.123Z,42.20
2018-05-01T11:23:55.610Z,42.70
2018-05-01T11:24:58.085Z,41.60
2018-05-01T11:26:00.960Z,41.40
2018-05-01T11:27:03.431Z,41.50
2018-05-01T11:28:05.906Z,41.60
2018-05-01T11:29:09.147Z,42.10
2018-05-01T11:30:11.887Z,41.60
2018-05-01T11:31:14.641Z,41.40
2018-05-01T11:32:17.132Z,40.70
2018-05-01T11:33:19.599Z,40.50
2018-05-01T11:34:22.068Z,40.40
2018-05-01T11:35:24.763Z,40.80
2018-05-01T11:36:27.596Z,41.20
2018-05-01T11:37:30.079Z,41.20
2018-05-01T11:38:32.547Z,41.10
2018-05-01T11:39:35.016Z,41.40
2018-05-01T11:40:37.859Z,41.80
2018-05-01T11:41:40.389Z,41.90
2018-05-01T11:42:43.631Z,41.90
2018-05-01T11:43:46.103Z,41.90
2018-05-01T11:44:48.564Z,41.80
2018-05-01T11:45:51.667Z,41.80
2018-05-01T11:46:54.943Z,41.50
2018-05-01T11:47:57.424Z,41.30
2018-05-01T11:48:59.889Z,41.30
2018-05-01T11:50:03.210Z,41.80
2018-05-01T11:51:05.865Z,41.70
2018-05-01T11:52:08.371Z,41.50
2018-05-01T11:53:10.832Z,41.00
2018-05-01T11:54:13.296Z,41.00
2018-05-01T11:55:16.967Z,40.80
2018-05-01T11:56:19.841Z,40.90
2018-05-01T11:57:22.365Z,41.00
2018-05-01T11:58:24.832Z,41.10
2018-05-01T11:59:27.297Z,41.00
2018-05-01T12:00:30.768Z,40.80
2018-05-01T12:01:33.256Z,41.10
2018-05-01T12:02:36.523Z,40.60
2018-05-01T12:03:38.994Z,40.60
2018-05-01T12:04:42.240Z,39.80
2018-05-01T12:05:44.987Z,40.00
2018-05-01T12:06:47.491Z,39.70
2018-05-01T12:07:50.040Z,39.60
2018-05-01T12:08:52.515Z,39.60
2018-05-01T12:09:54.983Z,39.80
2018-05-01T12:10:57.823Z,39.90
2018-05-01T12:12:00.337Z,39.80
2018-05-01T12:13:02.831Z,39.70
2018-05-01T12:14:06.072Z,39.80
2018-05-01T12:15:08.908Z,39.80
2018-05-01T12:16:11.784Z,39.80
2018-05-01T12:17:15.108Z,39.90
2018-05-01T12:18:17.584Z,39.80
2018-05-01T12:19:20.048Z,39.70
2018-05-01T12:20:22.768Z,39.60
2018-05-01T12:21:25.536Z,39.50
2018-05-01T12:22:28.041Z,39.60
2018-05-01T12:23:30.527Z,40.00
2018-05-01T12:24:33.767Z,40.40
2018-05-01T12:25:37.686Z,40.30
2018-05-01T12:26:40.169Z,40.90
2018-05-01T12:27:43.409Z,40.80
2018-05-01T12:28:45.925Z,40.30
2018-05-01T12:29:49.155Z,40.90
2018-05-01T12:30:51.911Z,40.90
2018-05-01T12:31:54.420Z,40.90
2018-05-01T12:32:56.888Z,40.60
2018-05-01T12:33:59.375Z,40.90
2018-05-01T12:35:02.611Z,40.90
2018-05-01T12:36:05.358Z,40.90
2018-05-01T12:37:08.674Z,40.90
2018-05-01T12:38:11.120Z,41.10
2018-05-01T12:39:13.619Z,41.60
2018-05-01T12:40:16.444Z,41.70
2018-05-01T12:41:20.344Z,41.60
2018-05-01T12:42:22.921Z,41.70
2018-05-01T12:43:25.319Z,41.70
2018-05-01T12:44:27.804Z,41.70
2018-05-01T12:45:31.328Z,41.60
2018-05-01T12:46:33.833Z,41.20
2018-05-01T12:47:36.296Z,40.60
2018-05-01T12:48:38.760Z,40.40
2018-05-01T12:49:41.255Z,39.80
2018-05-01T12:50:44.837Z,40.10
2018-05-01T12:51:47.364Z,39.70
2018-05-01T12:52:49.828Z,39.60
2018-05-01T12:53:52.319Z,39.70
2018-05-01T12:54:54.788Z,39.40
2018-05-01T12:55:57.641Z,38.80
2018-05-01T12:57:00.119Z,38.70
2018-05-01T12:58:02.589Z,39.00
2018-05-01T12:59:05.121Z,39.20
2018-05-01T13:00:08.631Z,39.60
2018-05-01T13:01:11.304Z,39.60
2018-05-01T13:02:13.796Z,39.80
2018-05-01T13:03:17.056Z,40.30
2018-05-01T13:04:19.524Z,40.30
2018-05-01T13:05:22.344Z,40.50
2018-05-01T13:06:25.058Z,40.40
2018-05-01T13:07:28.312Z,40.40
2018-05-01T13:08:30.784Z,40.40
2018-05-01T13:09:33.249Z,40.20
2018-05-01T13:10:36.038Z,40.10
2018-05-01T13:11:38.516Z,40.00
2018-05-01T13:12:40.980Z,40.10
2018-05-01T13:13:43.471Z,40.20
2018-05-01T13:14:46.700Z,39.10
2018-05-01T13:15:49.438Z,39.10
2018-05-01T13:16:51.940Z,39.10
2018-05-01T13:17:54.404Z,38.90
2018-05-01T13:18:56.872Z,38.90
2018-05-01T13:19:59.336Z,39.00
2018-05-01T13:21:02.068Z,39.00
2018-05-01T13:22:04.560Z,38.70
2018-05-01T13:23:07.023Z,38.70
2018-05-01T13:24:09.492Z,39.00